Time;durP1;ratioP1;P1;durP2;ratioP2;P2;SDS_P1;SDS_P2;PMS_P1;PMS_P2;Temp;Humidity;BMP_temperature;BMP_pressure;BME280_temperature;BME280_humidity;BME280_pressure;Samples;Min_cycle;Max_cycle;Signal;HPM_P1;HPM_P2
2022/09/23 00:00:12;;;;;;;3.20;3.00;;;;;;;;;;5082597;28;20197;-69
2022/09/23 00:02:39;;;;;;;3.25;3.05;;;;;;;;;;5082371;28;20207;-69
2022/09/23 00:05:06;;;;;;;3.33;3.13;;;;;;;;;;5082616;28;20262;-69
2022/09/23 00:07:32;;;;;;;3.17;2.97;;;;;;;;;;5082585;28;20386;-69
2022/09/23 00:09:59;;;;;;;3.67;3.13;;;;;;;;;;5082233;28;20417;-70
2022/09/23 00:12:25;;;;;;;6.38;3.45;;;;;;;;;;5082256;28;20196;-69
2022/09/23 00:14:51;;;;;;;3.00;2.90;;;;;;;;;;5082286;28;20433;-69
2022/09/23 00:17:17;;;;;;;3.13;3.00;;;;;;;;;;5082518;28;20352;-69
2022/09/23 00:19:45;;;;;;;3.13;2.85;;;;;;;;;;5082284;28;20219;-69
2022/09/23 00:22:12;;;;;;;3.28;2.95;;;;;;;;;;5082195;28;20196;-69
2022/09/23 00:24:39;;;;;;;3.20;3.00;;;;;;;;;;5082244;28;20200;-69
2022/09/23 00:27:05;;;;;;;3.13;2.92;;;;;;;;;;5082089;28;20208;-69
2022/09/23 00:29:31;;;;;;;3.17;3.03;;;;;;;;;;5082310;28;20546;-69
2022/09/23 00:31:58;;;;;;;2.92;2.72;;;;;;;;;;5082105;28;20406;-69
2022/09/23 00:34:24;;;;;;;5.53;2.92;;;;;;;;;;5081988;28;20196;-69
2022/09/23 00:36:52;;;;;;;3.17;3.08;;;;;;;;;;5082422;28;20433;-69
2022/09/23 00:39:18;;;;;;;3.55;3.10;;;;;;;;;;5082087;28;20227;-70
2022/09/23 00:41:44;;;;;;;3.08;2.97;;;;;;;;;;5081910;28;20200;-69
2022/09/23 00:44:29;;;;;;;3.60;3.30;;;;;;;;;;5081935;28;20242;-69
2022/09/23 00:46:55;;;;;;;3.85;3.60;;;;;;;;;;5082071;28;20196;-69
2022/09/23 00:49:24;;;;;;;3.95;3.55;;;;;;;;;;5081889;28;20237;-69
2022/09/23 00:51:54;;;;;;;3.58;3.28;;;;;;;;;;5082033;28;20196;-69
2022/09/23 00:54:21;;;;;;;3.28;3.17;;;;;;;;;;5081806;28;20392;-69
2022/09/23 00:56:48;;;;;;;3.80;3.50;;;;;;;;;;5082103;28;20330;-69
2022/09/23 00:59:14;;;;;;;6.15;4.25;;;;;;;;;;5082062;28;20540;-69
2022/09/23 01:01:41;;;;;;;8.90;3.80;;;;;;;;;;5081968;28;20550;-69
2022/09/23 01:04:07;;;;;;;3.85;3.63;;;;;;;;;;5081729;28;20200;-69
2022/09/23 01:06:34;;;;;;;4.78;3.55;;;;;;;;;;5082216;28;20216;-69
2022/09/23 01:09:01;;;;;;;3.65;3.40;;;;;;;;;;5085856;28;20423;-69
2022/09/23 01:11:37;;;;;;;3.40;3.20;;;;;;;;;;5085253;28;20207;-69
2022/09/23 01:14:12;;;;;;;4.10;3.90;;;;;;;;;;5085579;28;20538;-69
2022/09/23 01:16:41;;;;;;;3.50;3.30;;;;;;;;;;5085821;28;20428;-67
2022/09/23 01:19:13;;;;;;;4.47;3.60;;;;;;;;;;5086016;28;20223;-67
2022/09/23 01:21:44;;;;;;;4.13;3.90;;;;;;;;;;5085895;28;20296;-67
2022/09/23 01:24:23;;;;;;;4.30;3.90;;;;;;;;;;5085408;28;20196;-67
2022/09/23 01:26:56;;;;;;;4.82;4.57;;;;;;;;;;5085815;28;20271;-66
2022/09/23 01:29:36;;;;;;;5.43;4.93;;;;;;;;;;5085715;28;20404;-66
2022/09/23 01:32:09;;;;;;;5.40;4.90;;;;;;;;;;5085485;28;20318;-66
2022/09/23 01:34:37;;;;;;;5.25;4.93;;;;;;;;;;5085205;28;20273;-67
2022/09/23 01:37:07;;;;;;;5.28;4.88;;;;;;;;;;5085539;28;20196;-67
2022/09/23 01:39:35;;;;;;;5.93;5.32;;;;;;;;;;5085389;28;20451;-68
2022/09/23 01:42:05;;;;;;;5.60;5.10;;;;;;;;;;5085379;28;20393;-68
2022/09/23 01:44:34;;;;;;;5.93;5.40;;;;;;;;;;5085048;28;20203;-68
2022/09/23 01:47:05;;;;;;;5.68;5.18;;;;;;;;;;5085053;28;20197;-68
2022/09/23 01:49:38;;;;;;;5.50;5.13;;;;;;;;;;5085301;28;20192;-68
2022/09/23 01:52:08;;;;;;;7.15;5.55;;;;;;;;;;5085144;28;20196;-68
2022/09/23 01:54:38;;;;;;;6.13;5.63;;;;;;;;;;5085062;28;20234;-68
2022/09/23 01:57:07;;;;;;;6.60;5.72;;;;;;;;;;5084873;28;20504;-68
2022/09/23 01:59:35;;;;;;;5.13;4.70;;;;;;;;;;5084653;28;20223;-67
2022/09/23 02:02:04;;;;;;;6.05;4.78;;;;;;;;;;5084743;28;20251;-67
2022/09/23 02:04:35;;;;;;;6.68;4.43;;;;;;;;;;5084422;28;20196;-67
2022/09/23 02:07:05;;;;;;;5.53;4.70;;;;;;;;;;5084849;28;20255;-67
2022/09/23 02:09:34;;;;;;;5.75;4.32;;;;;;;;;;5084662;28;20500;-67
2022/09/23 02:12:04;;;;;;;5.30;4.47;;;;;;;;;;5084611;28;20500;-67
2022/09/23 02:14:32;;;;;;;5.10;4.32;;;;;;;;;;5084251;28;20227;-67
2022/09/23 02:17:01;;;;;;;4.68;4.20;;;;;;;;;;5084815;28;20203;-67
2022/09/23 02:19:30;;;;;;;7.60;4.70;;;;;;;;;;5083151;28;20274;-67
2022/09/23 02:22:00;;;;;;;4.47;4.18;;;;;;;;;;5084417;28;20201;-67
2022/09/23 02:24:29;;;;;;;4.72;4.28;;;;;;;;;;5084121;28;20202;-67
2022/09/23 02:26:58;;;;;;;5.85;3.80;;;;;;;;;;5084179;28;20435;-67
2022/09/23 02:29:28;;;;;;;4.47;4.05;;;;;;;;;;5084409;28;20215;-67
2022/09/23 02:31:56;;;;;;;4.30;3.83;;;;;;;;;;5084388;28;20228;-68
2022/09/23 02:34:29;;;;;;;4.20;3.90;;;;;;;;;;5084115;28;20233;-67
2022/09/23 02:37:02;;;;;;;4.60;4.20;;;;;;;;;;5084227;28;20196;-67
2022/09/23 02:39:32;;;;;;;3.85;3.65;;;;;;;;;;5084130;28;20230;-67
2022/09/23 02:42:01;;;;;;;4.20;3.67;;;;;;;;;;5084220;28;20206;-67
2022/09/23 02:44:28;;;;;;;4.00;3.70;;;;;;;;;;5083809;28;20208;-67
2022/09/23 02:46:56;;;;;;;4.47;4.10;;;;;;;;;;5083984;28;20203;-67
2022/09/23 02:49:24;;;;;;;4.00;3.63;;;;;;;;;;5084097;28;20279;-67
2022/09/23 02:51:51;;;;;;;4.65;3.90;;;;;;;;;;5083960;28;20501;-67
2022/09/23 02:54:21;;;;;;;4.30;4.00;;;;;;;;;;5083811;28;20258;-67
2022/09/23 02:56:48;;;;;;;4.32;3.70;;;;;;;;;;5084181;28;20208;-67
2022/09/23 02:59:18;;;;;;;4.10;3.80;;;;;;;;;;5083526;28;20224;-67
2022/09/23 03:01:46;;;;;;;4.05;3.75;;;;;;;;;;5083740;28;20196;-67
2022/09/23 03:04:16;;;;;;;3.88;3.58;;;;;;;;;;5083402;28;20203;-67
2022/09/23 03:06:47;;;;;;;3.63;3.42;;;;;;;;;;5083793;28;20236;-67
2022/09/23 03:09:21;;;;;;;3.67;3.47;;;;;;;;;;5083660;28;20196;-67
2022/09/23 03:11:51;;;;;;;4.03;3.72;;;;;;;;;;5083694;28;20203;-67
2022/09/23 03:14:22;;;;;;;3.80;3.50;;;;;;;;;;5083369;28;20196;-67
2022/09/23 03:16:52;;;;;;;3.67;3.47;;;;;;;;;;5083366;28;20203;-67
2022/09/23 03:19:25;;;;;;;4.28;3.88;;;;;;;;;;5083584;28;20220;-67
2022/09/23 03:21:57;;;;;;;3.72;3.53;;;;;;;;;;5083458;28;20199;-67
2022/09/23 03:24:24;;;;;;;4.10;3.83;;;;;;;;;;5083081;28;20271;-67
2022/09/23 03:26:52;;;;;;;4.07;3.70;;;;;;;;;;5083507;28;20216;-67
2022/09/23 03:29:20;;;;;;;3.65;3.42;;;;;;;;;;5082644;28;20193;-66
2022/09/23 03:31:47;;;;;;;4.13;3.63;;;;;;;;;;5083198;28;20196;-66
2022/09/23 03:34:16;;;;;;;3.65;3.42;;;;;;;;;;5083019;28;20204;-66
2022/09/23 03:36:52;;;;;;;4.35;3.95;;;;;;;;;;5083184;28;20395;-66
2022/09/23 03:39:23;;;;;;;5.18;3.53;;;;;;;;;;5082987;28;20220;-66
2022/09/23 03:41:52;;;;;;;5.55;4.25;;;;;;;;;;5082722;28;20203;-66
2022/09/23 03:44:19;;;;;;;3.72;3.50;;;;;;;;;;5082908;28;20524;-66
2022/09/23 03:46:48;;;;;;;4.55;3.85;;;;;;;;;;5083236;28;20387;-67
2022/09/23 03:49:16;;;;;;;4.47;4.07;;;;;;;;;;5082852;28;20266;-68
2022/09/23 03:51:42;;;;;;;4.18;3.90;;;;;;;;;;5082669;28;20200;-68
2022/09/23 03:54:08;;;;;;;4.40;4.10;;;;;;;;;;5082334;28;20196;-68
2022/09/23 03:56:35;;;;;;;4.22;3.50;;;;;;;;;;5082903;28;20197;-68
2022/09/23 03:59:03;;;;;;;4.00;3.47;;;;;;;;;;5082383;28;20212;-68
2022/09/23 04:01:29;;;;;;;4.78;4.40;;;;;;;;;;5082830;28;20295;-68
2022/09/23 04:03:55;;;;;;;4.57;4.18;;;;;;;;;;5082399;28;20192;-69
2022/09/23 04:06:22;;;;;;;4.47;4.07;;;;;;;;;;5082514;28;20255;-69
2022/09/23 04:08:48;;;;;;;4.75;4.25;;;;;;;;;;5082288;28;20196;-69
2022/09/23 04:11:14;;;;;;;5.22;4.70;;;;;;;;;;5082428;28;20204;-69
2022/09/23 04:13:41;;;;;;;4.90;4.50;;;;;;;;;;5082258;28;20196;-69
2022/09/23 04:16:08;;;;;;;5.50;4.82;;;;;;;;;;5082518;28;20242;-69
2022/09/23 04:18:35;;;;;;;4.07;3.78;;;;;;;;;;5082243;28;20211;-69
2022/09/23 04:21:01;;;;;;;5.20;4.78;;;;;;;;;;5082186;28;20220;-69
2022/09/23 04:23:27;;;;;;;4.95;4.45;;;;;;;;;;5082369;28;20228;-69
2022/09/23 04:25:54;;;;;;;4.63;4.18;;;;;;;;;;5082075;28;20226;-68
2022/09/23 04:28:21;;;;;;;7.78;4.53;;;;;;;;;;5082230;28;20219;-68
2022/09/23 04:30:47;;;;;;;4.88;4.50;;;;;;;;;;5082317;28;20192;-68
2022/09/23 04:33:16;;;;;;;6.50;4.40;;;;;;;;;;5082050;28;20234;-68
2022/09/23 04:35:42;;;;;;;6.22;4.22;;;;;;;;;;5082164;28;20197;-68
2022/09/23 04:38:09;;;;;;;4.82;4.50;;;;;;;;;;5083138;28;20200;-68
2022/09/23 04:40:36;;;;;;;7.72;4.72;;;;;;;;;;5083461;28;20226;-69
2022/09/23 04:43:02;;;;;;;8.30;4.80;;;;;;;;;;5081357;28;20203;-68
2022/09/23 04:45:29;;;;;;;9.13;4.75;;;;;;;;;;5082277;28;20196;-68
2022/09/23 04:47:57;;;;;;;5.53;4.93;;;;;;;;;;5082100;28;20404;-68
2022/09/23 04:50:25;;;;;;;5.35;4.40;;;;;;;;;;5081765;28;20500;-69
2022/09/23 04:52:51;;;;;;;11.35;4.50;;;;;;;;;;5081661;28;20204;-69
2022/09/23 04:55:18;;;;;;;9.38;5.15;;;;;;;;;;5081936;28;20196;-69
2022/09/23 04:57:44;;;;;;;6.28;4.78;;;;;;;;;;5081928;28;20202;-69
2022/09/23 05:00:14;;;;;;;4.93;4.53;;;;;;;;;;5081871;28;20389;-69
2022/09/23 05:02:42;;;;;;;6.05;4.53;;;;;;;;;;5081695;28;20196;-69
2022/09/23 05:05:08;;;;;;;4.88;4.47;;;;;;;;;;5081604;28;20263;-69
2022/09/23 05:07:36;;;;;;;6.22;4.53;;;;;;;;;;5081918;28;20203;-69
2022/09/23 05:10:02;;;;;;;9.80;4.80;;;;;;;;;;5081661;28;20196;-69
2022/09/23 05:12:28;;;;;;;5.10;4.20;;;;;;;;;;5081994;28;20396;-69
2022/09/23 05:14:55;;;;;;;4.75;4.25;;;;;;;;;;5081654;28;20196;-69
2022/09/23 05:17:21;;;;;;;4.78;4.43;;;;;;;;;;5081603;28;20227;-69
2022/09/23 05:19:48;;;;;;;6.00;4.55;;;;;;;;;;5081522;28;20573;-69
2022/09/23 05:22:14;;;;;;;6.88;4.30;;;;;;;;;;5081464;28;20196;-69
2022/09/23 05:24:42;;;;;;;5.40;4.63;;;;;;;;;;5070310;28;20200;-63
2022/09/23 05:27:08;;;;;;;6.60;5.05;;;;;;;;;;5057060;28;20285;-63
2022/09/23 05:29:34;;;;;;;5.70;4.88;;;;;;;;;;5074264;28;20211;-63
2022/09/23 05:32:01;;;;;;;6.80;5.15;;;;;;;;;;5070817;28;20543;-63
2022/09/23 05:34:27;;;;;;;7.75;4.85;;;;;;;;;;5075246;28;20216;-63
2022/09/23 05:36:53;;;;;;;4.93;4.50;;;;;;;;;;5075533;28;20381;-63
2022/09/23 05:39:22;;;;;;;8.95;4.88;;;;;;;;;;5073830;28;20239;-64
2022/09/23 05:41:51;;;;;;;5.85;5.15;;;;;;;;;;5074097;28;20279;-63
2022/09/23 05:44:18;;;;;;;8.57;5.22;;;;;;;;;;5071824;28;20204;-63
2022/09/23 05:46:44;;;;;;;8.57;5.10;;;;;;;;;;5074444;28;20539;-63
2022/09/23 05:49:10;;;;;;;5.13;4.60;;;;;;;;;;5074288;28;20593;-63
2022/09/23 05:51:37;;;;;;;5.60;4.95;;;;;;;;;;5074334;28;20205;-63
2022/09/23 05:54:04;;;;;;;7.13;4.60;;;;;;;;;;5076745;28;20431;-62
2022/09/23 05:56:30;;;;;;;5.97;5.30;;;;;;;;;;5076827;28;20212;-62
2022/09/23 05:58:59;;;;;;;7.55;5.28;;;;;;;;;;5077170;28;20239;-62
2022/09/23 06:01:26;;;;;;;6.35;5.35;;;;;;;;;;5076974;28;20266;-62
2022/09/23 06:03:53;;;;;;;10.00;5.20;;;;;;;;;;5076847;28;20220;-63
2022/09/23 06:06:20;;;;;;;14.02;5.43;;;;;;;;;;5076617;28;20304;-62
2022/09/23 06:08:47;;;;;;;10.70;5.60;;;;;;;;;;5074891;28;20213;-63
2022/09/23 06:11:14;;;;;;;8.93;5.43;;;;;;;;;;5076383;28;20662;-63
2022/09/23 06:13:41;;;;;;;10.63;5.90;;;;;;;;;;5076445;28;20219;-62
2022/09/23 06:16:09;;;;;;;9.27;5.93;;;;;;;;;;5075458;28;20571;-63
2022/09/23 06:18:37;;;;;;;7.40;5.45;;;;;;;;;;5075849;28;20223;-62
2022/09/23 06:21:04;;;;;;;6.22;5.63;;;;;;;;;;5075175;28;20224;-62
2022/09/23 06:23:30;;;;;;;9.75;6.32;;;;;;;;;;5075791;28;20300;-63
2022/09/23 06:25:59;;;;;;;7.47;6.10;;;;;;;;;;5076010;28;20212;-63
2022/09/23 06:28:29;;;;;;;17.35;6.60;;;;;;;;;;5076772;28;20212;-62
2022/09/23 06:30:56;;;;;;;7.40;6.68;;;;;;;;;;5072783;28;20500;-63
2022/09/23 06:33:26;;;;;;;11.80;6.57;;;;;;;;;;5076488;28;20212;-63
2022/09/23 06:35:56;;;;;;;13.68;6.60;;;;;;;;;;5076305;28;20219;-62
2022/09/23 06:38:23;;;;;;;11.10;6.43;;;;;;;;;;5076743;28;20216;-63
2022/09/23 06:40:49;;;;;;;12.75;7.63;;;;;;;;;;5076809;28;20494;-62
2022/09/23 06:43:16;;;;;;;9.50;6.97;;;;;;;;;;5076230;28;20212;-63
2022/09/23 06:45:42;;;;;;;8.10;7.40;;;;;;;;;;5076563;28;20208;-63
2022/09/23 06:48:08;;;;;;;18.00;7.35;;;;;;;;;;5076206;28;20530;-63
2022/09/23 06:50:36;;;;;;;9.65;7.50;;;;;;;;;;5076380;28;20250;-63
2022/09/23 06:53:03;;;;;;;10.15;8.18;;;;;;;;;;5075897;28;20251;-63
2022/09/23 06:55:30;;;;;;;11.30;6.97;;;;;;;;;;5076134;28;20290;-63
2022/09/23 06:57:57;;;;;;;9.30;7.65;;;;;;;;;;5075505;28;20281;-63
2022/09/23 07:00:25;;;;;;;12.18;7.68;;;;;;;;;;5075059;28;20228;-62
2022/09/23 07:02:51;;;;;;;10.10;7.43;;;;;;;;;;5072892;28;20216;-63
2022/09/23 07:05:18;;;;;;;12.43;7.28;;;;;;;;;;5075051;28;20231;-63
2022/09/23 07:07:45;;;;;;;9.77;6.78;;;;;;;;;;5076644;28;20959;-63
2022/09/23 07:10:12;;;;;;;7.85;7.18;;;;;;;;;;5076059;28;20219;-63
2022/09/23 07:12:38;;;;;;;9.88;7.82;;;;;;;;;;5075472;28;20616;-63
2022/09/23 07:15:04;;;;;;;8.98;7.13;;;;;;;;;;5075108;28;20273;-63
2022/09/23 07:17:31;;;;;;;8.30;7.60;;;;;;;;;;5075813;28;20258;-62
2022/09/23 07:19:57;;;;;;;9.32;7.80;;;;;;;;;;5075695;28;20208;-63
2022/09/23 07:22:25;;;;;;;16.80;8.43;;;;;;;;;;5075793;28;20219;-62
2022/09/23 07:24:55;;;;;;;11.18;7.38;;;;;;;;;;5075554;28;20307;-62
2022/09/23 07:27:22;;;;;;;11.30;7.95;;;;;;;;;;5071639;28;20212;-62
2022/09/23 07:29:49;;;;;;;8.18;7.38;;;;;;;;;;5075416;28;20212;-63
2022/09/23 07:32:15;;;;;;;18.17;8.35;;;;;;;;;;5075150;28;20375;-63
2022/09/23 07:34:42;;;;;;;10.88;7.70;;;;;;;;;;5075948;28;20238;-62
2022/09/23 07:37:09;;;;;;;12.23;7.57;;;;;;;;;;5075372;28;20565;-63
2022/09/23 07:39:36;;;;;;;8.23;7.43;;;;;;;;;;5074501;28;20215;-63
2022/09/23 07:42:04;;;;;;;7.40;6.63;;;;;;;;;;5074928;28;20551;-62
2022/09/23 07:44:31;;;;;;;10.68;7.30;;;;;;;;;;5075195;28;20201;-62
2022/09/23 07:46:57;;;;;;;6.90;6.30;;;;;;;;;;5074717;28;20370;-63
2022/09/23 07:49:25;;;;;;;6.80;6.07;;;;;;;;;;5075829;28;20212;-63
2022/09/23 07:51:51;;;;;;;6.45;5.75;;;;;;;;;;5075031;28;20518;-63
2022/09/23 07:54:18;;;;;;;8.23;5.72;;;;;;;;;;5075194;28;20554;-63
2022/09/23 07:56:45;;;;;;;8.98;6.10;;;;;;;;;;5074436;28;20417;-63
2022/09/23 07:59:14;;;;;;;5.88;5.38;;;;;;;;;;5074985;28;20208;-63
2022/09/23 08:01:41;;;;;;;5.60;5.15;;;;;;;;;;5075133;28;20259;-62
2022/09/23 08:04:08;;;;;;;8.02;5.47;;;;;;;;;;5074441;28;20245;-64
2022/09/23 08:06:35;;;;;;;7.03;5.45;;;;;;;;;;5074531;28;20254;-63
2022/09/23 08:09:01;;;;;;;5.13;4.70;;;;;;;;;;5075244;28;20212;-63
2022/09/23 08:11:28;;;;;;;9.65;5.65;;;;;;;;;;5074878;28;20523;-64
2022/09/23 08:13:55;;;;;;;6.90;5.70;;;;;;;;;;5074836;28;20212;-62
2022/09/23 08:16:23;;;;;;;5.85;5.07;;;;;;;;;;5074879;28;20262;-61
2022/09/23 08:18:49;;;;;;;7.72;5.22;;;;;;;;;;5074363;28;20200;-62
2022/09/23 08:21:18;;;;;;;5.03;4.63;;;;;;;;;;5074235;28;20598;-64
2022/09/23 08:23:45;;;;;;;7.72;4.53;;;;;;;;;;5074000;28;20677;-64
2022/09/23 08:26:12;;;;;;;5.80;5.22;;;;;;;;;;5074034;28;20535;-63
2022/09/23 08:28:38;;;;;;;6.00;4.63;;;;;;;;;;5074425;28;20224;-63
2022/09/23 08:31:05;;;;;;;5.72;4.45;;;;;;;;;;5074244;28;20209;-63
2022/09/23 08:33:32;;;;;;;4.68;4.18;;;;;;;;;;5074212;28;20388;-63
2022/09/23 08:35:59;;;;;;;4.55;4.18;;;;;;;;;;5074612;28;20291;-63
2022/09/23 08:38:25;;;;;;;4.85;4.20;;;;;;;;;;5074779;28;20219;-64
2022/09/23 08:40:52;;;;;;;6.82;3.92;;;;;;;;;;5074917;28;20232;-64
2022/09/23 08:43:21;;;;;;;4.53;4.13;;;;;;;;;;5074339;28;20212;-64
2022/09/23 08:45:49;;;;;;;4.40;4.10;;;;;;;;;;5074061;28;20212;-64
2022/09/23 08:48:17;;;;;;;4.60;4.30;;;;;;;;;;5074333;28;20212;-64
2022/09/23 08:50:46;;;;;;;5.07;3.88;;;;;;;;;;5074113;28;20208;-65
2022/09/23 08:53:15;;;;;;;7.32;4.68;;;;;;;;;;5074106;28;20212;-64
2022/09/23 08:55:44;;;;;;;7.20;4.32;;;;;;;;;;5073857;28;20216;-62
2022/09/23 08:58:21;;;;;;;5.00;4.03;;;;;;;;;;5074342;28;20419;-63
2022/09/23 09:00:52;;;;;;;5.82;4.72;;;;;;;;;;5074156;28;20453;-63
2022/09/23 09:03:20;;;;;;;7.93;4.97;;;;;;;;;;5074159;28;20491;-64
2022/09/23 09:05:49;;;;;;;6.95;5.18;;;;;;;;;;5073840;28;20223;-64
2022/09/23 09:08:17;;;;;;;7.38;4.38;;;;;;;;;;5074297;28;20211;-64
2022/09/23 09:10:45;;;;;;;8.48;4.50;;;;;;;;;;5074370;28;20208;-63
2022/09/23 09:13:19;;;;;;;10.57;5.00;;;;;;;;;;5073444;28;20524;-64
2022/09/23 09:15:49;;;;;;;7.63;6.63;;;;;;;;;;5073438;28;20212;-63
2022/09/23 09:18:18;;;;;;;4.80;4.30;;;;;;;;;;5073934;28;20265;-64
2022/09/23 09:20:48;;;;;;;6.47;5.00;;;;;;;;;;5073988;28;20225;-64
2022/09/23 09:23:20;;;;;;;5.13;4.60;;;;;;;;;;5073626;28;20586;-64
2022/09/23 09:25:49;;;;;;;4.30;3.90;;;;;;;;;;5073771;28;20435;-64
2022/09/23 09:28:18;;;;;;;4.20;3.85;;;;;;;;;;5075176;28;20204;-66
2022/09/23 09:30:46;;;;;;;7.68;4.25;;;;;;;;;;5077943;28;20531;-63
2022/09/23 09:33:14;;;;;;;4.03;3.60;;;;;;;;;;5077548;28;20540;-62
2022/09/23 09:35:41;;;;;;;7.43;4.15;;;;;;;;;;5077415;28;20281;-61
2022/09/23 09:38:08;;;;;;;4.35;3.92;;;;;;;;;;5077655;28;20212;-62
2022/09/23 09:40:39;;;;;;;3.55;3.33;;;;;;;;;;5078299;28;20216;-62
2022/09/23 09:43:06;;;;;;;4.22;3.47;;;;;;;;;;5077376;28;20605;-63
2022/09/23 09:45:52;;;;;;;8.48;3.92;;;;;;;;;;5077449;28;20250;-62
2022/09/23 09:48:23;;;;;;;5.22;3.50;;;;;;;;;;5077192;28;20212;-62
2022/09/23 09:50:50;;;;;;;4.72;3.40;;;;;;;;;;5077265;28;20214;-63
2022/09/23 09:53:23;;;;;;;4.50;3.75;;;;;;;;;;5077041;28;20217;-63
2022/09/23 09:56:02;;;;;;;4.07;3.70;;;;;;;;;;5077636;28;20208;-62
2022/09/23 09:58:30;;;;;;;5.43;3.40;;;;;;;;;;5077451;28;20258;-64
2022/09/23 10:00:57;;;;;;;3.67;3.35;;;;;;;;;;5077422;28;20228;-63
2022/09/23 10:03:26;;;;;;;7.53;3.50;;;;;;;;;;5077042;28;20216;-64
2022/09/23 10:05:53;;;;;;;5.03;3.33;;;;;;;;;;5073480;28;20555;-64
2022/09/23 10:08:24;;;;;;;4.10;3.70;;;;;;;;;;5077223;28;20212;-63
2022/09/23 10:10:53;;;;;;;5.30;3.53;;;;;;;;;;5077548;28;20204;-63
2022/09/23 10:13:22;;;;;;;3.85;3.55;;;;;;;;;;5076843;28;20209;-63
2022/09/23 10:15:49;;;;;;;3.67;3.15;;;;;;;;;;5080117;28;20205;-63
2022/09/23 10:18:18;;;;;;;5.65;2.95;;;;;;;;;;5079916;28;20217;-63
2022/09/23 10:20:45;;;;;;;2.95;2.85;;;;;;;;;;5079361;28;20261;-63
2022/09/23 10:23:15;;;;;;;6.93;3.35;;;;;;;;;;5079714;28;20200;-63
2022/09/23 10:25:41;;;;;;;3.50;3.20;;;;;;;;;;5078820;28;20205;-64
2022/09/23 10:28:28;;;;;;;5.80;3.00;;;;;;;;;;5079112;28;20200;-63
2022/09/23 10:31:05;;;;;;;3.58;2.75;;;;;;;;;;5076559;28;20208;-63
2022/09/23 10:33:31;;;;;;;2.97;2.53;;;;;;;;;;5076763;28;20208;-63
2022/09/23 10:35:57;;;;;;;3.25;2.78;;;;;;;;;;5079808;28;20434;-62
2022/09/23 10:38:24;;;;;;;3.38;3.08;;;;;;;;;;5079782;28;20242;-63
2022/09/23 10:46:40;;;;;;;7.03;2.72;;;;;;;;;;5056642;28;20297;-63
2022/09/23 10:49:16;;;;;;;2.50;2.40;;;;;;;;;;5078859;28;20205;-63
2022/09/23 10:51:50;;;;;;;5.25;2.92;;;;;;;;;;5079301;28;20511;-64
2022/09/23 10:54:22;;;;;;;2.67;2.30;;;;;;;;;;5074936;28;20508;-64
2022/09/23 10:56:50;;;;;;;3.13;2.47;;;;;;;;;;5079224;28;20412;-63
2022/09/23 10:59:26;;;;;;;3.10;2.20;;;;;;;;;;5078652;28;20212;-63
2022/09/23 11:02:01;;;;;;;3.25;2.65;;;;;;;;;;5079161;28;20312;-64
2022/09/23 11:04:39;;;;;;;3.28;2.40;;;;;;;;;;5075913;28;20207;-64
2022/09/23 11:07:13;;;;;;;5.60;2.70;;;;;;;;;;5078855;28;20212;-64
2022/09/23 11:09:44;;;;;;;3.03;2.83;;;;;;;;;;5077052;28;20389;-63
2022/09/23 11:12:17;;;;;;;4.38;2.92;;;;;;;;;;5078687;28;20212;-64
2022/09/23 11:14:50;;;;;;;3.13;2.78;;;;;;;;;;5079121;28;20216;-65
2022/09/23 11:17:28;;;;;;;4.90;3.08;;;;;;;;;;5078512;28;20212;-63
2022/09/23 11:19:59;;;;;;;2.72;2.55;;;;;;;;;;5079636;28;20207;-63
2022/09/23 11:22:35;;;;;;;2.85;2.65;;;;;;;;;;5074485;28;20406;-63
2022/09/23 11:25:11;;;;;;;3.58;2.83;;;;;;;;;;5077596;28;20215;-64
2022/09/23 11:27:42;;;;;;;4.90;3.65;;;;;;;;;;5078214;28;20216;-63
2022/09/23 11:30:10;;;;;;;2.67;2.38;;;;;;;;;;5078658;28;20254;-63
2022/09/23 11:32:54;;;;;;;2.55;2.45;;;;;;;;;;5078025;28;20208;-65
2022/09/23 11:35:24;;;;;;;3.22;2.55;;;;;;;;;;5078756;28;20213;-65
2022/09/23 11:37:51;;;;;;;4.18;3.35;;;;;;;;;;5078859;28;20288;-64
2022/09/23 11:40:19;;;;;;;4.57;3.30;;;;;;;;;;5078149;28;20224;-64
2022/09/23 11:42:51;;;;;;;2.45;1.90;;;;;;;;;;5078360;28;20284;-64
2022/09/23 11:45:18;;;;;;;6.88;3.50;;;;;;;;;;5078040;28;20227;-64
2022/09/23 11:47:47;;;;;;;2.50;2.40;;;;;;;;;;5077778;28;20216;-64
2022/09/23 11:50:18;;;;;;;3.00;2.50;;;;;;;;;;5077475;28;20230;-64
2022/09/23 11:52:46;;;;;;;3.83;2.83;;;;;;;;;;5078475;28;20239;-64
2022/09/23 11:55:15;;;;;;;2.63;2.42;;;;;;;;;;5077583;28;20334;-64
2022/09/23 11:57:45;;;;;;;3.50;2.20;;;;;;;;;;5077883;28;20208;-64
2022/09/23 12:00:14;;;;;;;1.33;1.30;;;;;;;;;;5077688;28;20223;-64
2022/09/23 12:02:49;;;;;;;4.07;1.70;;;;;;;;;;5077547;28;20232;-64
2022/09/23 12:05:18;;;;;;;5.47;1.88;;;;;;;;;;5077450;28;20266;-63
2022/09/23 12:07:49;;;;;;;5.65;1.50;;;;;;;;;;5078257;28;20420;-64
2022/09/23 12:10:16;;;;;;;2.65;1.77;;;;;;;;;;5077515;28;20208;-64
2022/09/23 12:12:46;;;;;;;1.85;1.75;;;;;;;;;;5077692;28;20204;-64
2022/09/23 12:15:17;;;;;;;1.85;1.75;;;;;;;;;;5077871;28;20208;-64
2022/09/23 12:18:03;;;;;;;2.53;1.67;;;;;;;;;;5077728;28;20557;-65
2022/09/23 12:20:46;;;;;;;3.95;1.70;;;;;;;;;;5075215;28;20491;-64
2022/09/23 12:23:19;;;;;;;1.58;1.42;;;;;;;;;;5077664;28;20227;-63
2022/09/23 12:25:46;;;;;;;2.10;2.00;;;;;;;;;;5077795;28;20212;-64
2022/09/23 12:28:15;;;;;;;3.10;1.95;;;;;;;;;;5078069;28;20396;-64
2022/09/23 12:30:42;;;;;;;3.97;2.22;;;;;;;;;;5077144;28;20400;-65
2022/09/23 12:33:09;;;;;;;2.33;1.77;;;;;;;;;;5077170;28;20196;-65
2022/09/23 12:35:37;;;;;;;6.00;2.20;;;;;;;;;;5077252;28;20683;-64
2022/09/23 12:38:12;;;;;;;2.78;2.03;;;;;;;;;;5077458;28;20527;-64
2022/09/23 12:40:42;;;;;;;2.35;2.00;;;;;;;;;;5077786;28;20221;-66
2022/09/23 12:43:15;;;;;;;2.42;2.30;;;;;;;;;;5075126;28;20227;-65
2022/09/23 12:45:41;;;;;;;3.55;2.58;;;;;;;;;;5077676;28;20196;-63
2022/09/23 12:48:26;;;;;;;2.63;2.42;;;;;;;;;;5077421;28;20515;-63
2022/09/23 12:50:53;;;;;;;4.85;2.33;;;;;;;;;;5077641;28;20212;-64
2022/09/23 12:53:54;;;;;;;3.72;2.20;;;;;;;;;;5077067;28;20200;-62
2022/09/23 12:56:22;;;;;;;3.78;2.17;;;;;;;;;;5077450;28;20211;-63
2022/09/23 12:58:59;;;;;;;1.98;1.90;;;;;;;;;;5077312;28;20196;-65
2022/09/23 13:01:26;;;;;;;3.08;2.33;;;;;;;;;;5077764;28;20400;-65
2022/09/23 13:06:39;;;;;;;2.25;2.05;;;;;;;;;;5075505;28;20430;-65
2022/09/23 13:09:07;;;;;;;4.93;2.42;;;;;;;;;;5077460;28;20212;-65
2022/09/23 13:11:39;;;;;;;3.47;2.40;;;;;;;;;;5077481;28;20245;-64
2022/09/23 13:14:06;;;;;;;2.95;2.25;;;;;;;;;;5076812;28;20410;-65
2022/09/23 13:16:33;;;;;;;3.00;2.53;;;;;;;;;;5077453;28;20208;-65
2022/09/23 13:19:01;;;;;;;6.22;2.42;;;;;;;;;;5076401;28;20527;-65
2022/09/23 13:21:46;;;;;;;2.47;2.08;;;;;;;;;;5077217;28;20204;-65
2022/09/23 13:24:19;;;;;;;3.97;2.20;;;;;;;;;;5076678;28;20570;-65
2022/09/23 13:26:49;;;;;;;6.72;2.78;;;;;;;;;;5077038;28;20557;-65
2022/09/23 13:29:17;;;;;;;4.15;2.42;;;;;;;;;;5077064;28;20562;-64
2022/09/23 13:31:44;;;;;;;3.92;2.38;;;;;;;;;;5077287;28;20242;-64
2022/09/23 13:34:13;;;;;;;2.25;2.05;;;;;;;;;;5076761;28;20561;-63
2022/09/23 13:36:43;;;;;;;2.30;2.10;;;;;;;;;;5076734;28;20430;-63
2022/09/23 13:39:16;;;;;;;2.97;2.42;;;;;;;;;;5076926;28;20573;-63
2022/09/23 13:41:44;;;;;;;4.45;2.22;;;;;;;;;;5076727;28;20261;-63
2022/09/23 13:44:17;;;;;;;6.85;2.50;;;;;;;;;;5077058;28;20254;-64
2022/09/23 13:46:48;;;;;;;2.90;2.60;;;;;;;;;;5076920;28;20215;-63
2022/09/23 13:49:21;;;;;;;2.38;1.83;;;;;;;;;;5074923;28;20213;-64
2022/09/23 13:51:47;;;;;;;3.13;2.40;;;;;;;;;;5073775;28;20214;-62
2022/09/23 13:54:27;;;;;;;2.10;2.00;;;;;;;;;;5073065;28;20246;-63
2022/09/23 13:56:54;;;;;;;6.10;1.88;;;;;;;;;;5074148;28;20288;-63
2022/09/23 13:59:26;;;;;;;2.58;2.17;;;;;;;;;;5073782;28;20296;-62
2022/09/23 14:02:02;;;;;;;3.30;2.13;;;;;;;;;;5073775;28;20341;-63
2022/09/23 14:04:28;;;;;;;5.43;2.03;;;;;;;;;;5070672;28;20219;-63
2022/09/23 14:06:55;;;;;;;6.53;2.45;;;;;;;;;;5074132;28;20284;-63
2022/09/23 14:09:23;;;;;;;2.42;2.33;;;;;;;;;;5074304;28;20228;-63
2022/09/23 14:11:50;;;;;;;3.70;1.88;;;;;;;;;;5073577;28;20212;-62
2022/09/23 14:14:16;;;;;;;5.82;2.30;;;;;;;;;;5075003;28;20212;-62
2022/09/23 14:16:44;;;;;;;4.88;1.98;;;;;;;;;;5076691;28;20441;-63
2022/09/23 14:19:15;;;;;;;5.15;2.13;;;;;;;;;;5077022;28;20213;-63
2022/09/23 14:21:41;;;;;;;2.95;2.08;;;;;;;;;;5076777;28;20463;-63
2022/09/23 14:24:13;;;;;;;2.05;1.95;;;;;;;;;;5076565;28;20290;-63
2022/09/23 14:26:40;;;;;;;2.10;2.00;;;;;;;;;;5076606;28;20224;-62
2022/09/23 14:29:08;;;;;;;3.75;2.38;;;;;;;;;;5076459;28;20528;-62
2022/09/23 14:31:34;;;;;;;2.35;2.20;;;;;;;;;;5076787;28;20363;-63
2022/09/23 14:34:02;;;;;;;3.70;2.03;;;;;;;;;;5076554;28;20208;-62
2022/09/23 14:39:15;;;;;;;1.95;1.40;;;;;;;;;;5053093;28;20226;-63
2022/09/23 14:41:43;;;;;;;3.25;2.10;;;;;;;;;;5075634;28;20212;-62
2022/09/23 14:44:18;;;;;;;3.50;2.10;;;;;;;;;;5076307;28;20227;-63
2022/09/23 14:46:50;;;;;;;2.30;2.10;;;;;;;;;;5076538;28;20219;-63
2022/09/23 14:49:18;;;;;;;3.47;2.08;;;;;;;;;;5076729;28;20212;-62
2022/09/23 14:51:47;;;;;;;2.78;2.20;;;;;;;;;;5076498;28;20216;-63
2022/09/23 14:54:25;;;;;;;4.32;3.00;;;;;;;;;;5075940;28;20204;-62
2022/09/23 14:56:52;;;;;;;4.93;3.38;;;;;;;;;;5074838;28;20219;-62
2022/09/23 14:59:24;;;;;;;3.22;3.03;;;;;;;;;;5076191;28;20239;-64
2022/09/23 15:01:51;;;;;;;5.38;3.30;;;;;;;;;;5076607;28;20219;-64
2022/09/23 15:04:29;;;;;;;5.13;3.20;;;;;;;;;;5075749;28;20409;-63